WAT6405 KPHX-KLAS
Flight info
| Callsign | WAT6405 |
|---|---|
| Flight time | 0h 43m |
| Altitude | 26000 |
| Route | ZEPER2 RRSTA ELLDA RKSTR4 |
| Aircraft | A21N/M-SDE2E3FGHIRWXY/LB1 |
Departure
| Time | 2026-05-04 03:18 |
|---|---|
| Airport | Phoenix Sky Harbor International Airport (KPHX) |
Arrival
| Time | 2026-05-04 04:01 |
|---|---|
| Airport | Harry Reid International Airport (KLAS) |
| Time | Latitude | Longitude | Altitude | Speed | Heading |
|---|---|---|---|---|---|
| 2026-05-04 02:22 | 33.43784 | -111.99625 | 1139 ft | 0 kts | 270° |
| 2026-05-04 03:05 | 33.43784 | -111.99609 | 1138 ft | 2 kts | 269° |
| 2026-05-04 03:05 | 33.43781 | -111.99590 | 1138 ft | 2 kts | 304° |
| 2026-05-04 03:05 | 33.43769 | -111.99577 | 1138 ft | 2 kts | 332° |
| 2026-05-04 03:05 | 33.43757 | -111.99571 | 1138 ft | 0 kts | 355° |
| 2026-05-04 03:06 | 33.43759 | -111.99572 | 1138 ft | 3 kts | 353° |
| 2026-05-04 03:06 | 33.43784 | -111.99573 | 1138 ft | 1 kts | 359° |
| 2026-05-04 03:06 | 33.43785 | -111.99573 | 1138 ft | 0 kts | 359° |
| 2026-05-04 03:09 | 33.43786 | -111.99573 | 1138 ft | 0 kts | 359° |
| 2026-05-04 03:09 | 33.43824 | -111.99572 | 1139 ft | 8 kts | 2° |
| 2026-05-04 03:09 | 33.43882 | -111.99559 | 1140 ft | 8 kts | 34° |
| 2026-05-04 03:09 | 33.43904 | -111.99496 | 1141 ft | 8 kts | 84° |
| 2026-05-04 03:10 | 33.43905 | -111.99419 | 1141 ft | 9 kts | 91° |
| 2026-05-04 03:10 | 33.43903 | -111.99331 | 1141 ft | 10 kts | 92° |
| 2026-05-04 03:10 | 33.43904 | -111.99283 | 1141 ft | 3 kts | 85° |
| 2026-05-04 03:10 | 33.43912 | -111.99257 | 1141 ft | 0 kts | 58° |
| 2026-05-04 03:11 | 33.43912 | -111.99255 | 1141 ft | 0 kts | 71° |
| 2026-05-04 03:11 | 33.43910 | -111.99248 | 1141 ft | 2 kts | 115° |
| 2026-05-04 03:11 | 33.43892 | -111.99234 | 1140 ft | 4 kts | 158° |
| 2026-05-04 03:11 | 33.43847 | -111.99226 | 1139 ft | 8 kts | 175° |
| 2026-05-04 03:12 | 33.43771 | -111.99228 | 1138 ft | 11 kts | 183° |
| 2026-05-04 03:12 | 33.43680 | -111.99230 | 1136 ft | 13 kts | 179° |
| 2026-05-04 03:12 | 33.43578 | -111.99229 | 1134 ft | 14 kts | 180° |
| 2026-05-04 03:12 | 33.43469 | -111.99230 | 1133 ft | 15 kts | 181° |
| 2026-05-04 03:13 | 33.43357 | -111.99232 | 1132 ft | 14 kts | 180° |
| 2026-05-04 03:13 | 33.43270 | -111.99229 | 1132 ft | 8 kts | 179° |
| 2026-05-04 03:13 | 33.43265 | -111.99229 | 1132 ft | 0 kts | 180° |
| 2026-05-04 03:14 | 33.43264 | -111.99229 | 1132 ft | 0 kts | 180° |
| 2026-05-04 03:14 | 33.43251 | -111.99231 | 1132 ft | 2 kts | 190° |
| 2026-05-04 03:14 | 33.43224 | -111.99246 | 1132 ft | 4 kts | 214° |
| 2026-05-04 03:14 | 33.43205 | -111.99265 | 1132 ft | 0 kts | 225° |
| 2026-05-04 03:16 | 33.43198 | -111.99274 | 1132 ft | 3 kts | 225° |
| 2026-05-04 03:16 | 33.43171 | -111.99305 | 1133 ft | 6 kts | 225° |
| 2026-05-04 03:16 | 33.43130 | -111.99357 | 1133 ft | 9 kts | 227° |
| 2026-05-04 03:17 | 33.43105 | -111.99436 | 1131 ft | 4 kts | 269° |
| 2026-05-04 03:17 | 33.43104 | -111.99500 | 1131 ft | 36 kts | 269° |
| 2026-05-04 03:17 | 33.43102 | -112.00175 | 1130 ft | 118 kts | 269° |
| 2026-05-04 03:18 | 33.43105 | -112.01481 | 1201 ft | 176 kts | 269° |
| 2026-05-04 03:18 | 33.43183 | -112.02969 | 1945 ft | 177 kts | 270° |
| 2026-05-04 03:18 | 33.43262 | -112.04415 | 2843 ft | 172 kts | 267° |
| 2026-05-04 03:18 | 33.43257 | -112.05837 | 3616 ft | 172 kts | 261° |
| 2026-05-04 03:19 | 33.43185 | -112.07343 | 4001 ft | 185 kts | 261° |
| 2026-05-04 03:19 | 33.43168 | -112.08952 | 4287 ft | 200 kts | 265° |
| 2026-05-04 03:19 | 33.43227 | -112.10702 | 4593 ft | 215 kts | 267° |
| 2026-05-04 03:19 | 33.43320 | -112.12556 | 4859 ft | 232 kts | 268° |
| 2026-05-04 03:20 | 33.43395 | -112.14570 | 5194 ft | 246 kts | 266° |
| 2026-05-04 03:20 | 33.43507 | -112.16637 | 5772 ft | 254 kts | 277° |
| 2026-05-04 03:20 | 33.44268 | -112.18600 | 6423 ft | 266 kts | 306° |
| 2026-05-04 03:20 | 33.45813 | -112.19894 | 7045 ft | 279 kts | 338° |
| 2026-05-04 03:21 | 33.47763 | -112.20110 | 7676 ft | 283 kts | 8° |
| 2026-05-04 03:21 | 33.49674 | -112.19527 | 8394 ft | 279 kts | 12° |
| 2026-05-04 03:21 | 33.51630 | -112.19420 | 8938 ft | 281 kts | 351° |
| 2026-05-04 03:21 | 33.53556 | -112.19951 | 9514 ft | 283 kts | 343° |
| 2026-05-04 03:22 | 33.55538 | -112.20375 | 9982 ft | 292 kts | 354° |
| 2026-05-04 03:22 | 33.57657 | -112.20448 | 10415 ft | 303 kts | 359° |
| 2026-05-04 03:22 | 33.59837 | -112.20405 | 10847 ft | 312 kts | 358° |
| 2026-05-04 03:22 | 33.62064 | -112.20506 | 11330 ft | 319 kts | 352° |
| 2026-05-04 03:23 | 33.64330 | -112.21008 | 11807 ft | 325 kts | 342° |
| 2026-05-04 03:23 | 33.66613 | -112.21749 | 12115 ft | 340 kts | 340° |
| 2026-05-04 03:23 | 33.68966 | -112.22593 | 12476 ft | 352 kts | 341° |
| 2026-05-04 03:23 | 33.71452 | -112.23412 | 12875 ft | 363 kts | 342° |
| 2026-05-04 03:24 | 33.73970 | -112.24201 | 13380 ft | 370 kts | 342° |
| 2026-05-04 03:24 | 33.76517 | -112.25013 | 14096 ft | 369 kts | 341° |
| 2026-05-04 03:24 | 33.79075 | -112.25809 | 14772 ft | 368 kts | 341° |
| 2026-05-04 03:24 | 33.81622 | -112.26606 | 15374 ft | 371 kts | 340° |
| 2026-05-04 03:25 | 33.84156 | -112.27413 | 15934 ft | 373 kts | 340° |
| 2026-05-04 03:25 | 33.86706 | -112.28230 | 16567 ft | 373 kts | 339° |
| 2026-05-04 03:25 | 33.89326 | -112.29076 | 17178 ft | 374 kts | 339° |
| 2026-05-04 03:25 | 33.91925 | -112.29919 | 17764 ft | 374 kts | 339° |
| 2026-05-04 03:26 | 33.94504 | -112.30756 | 18304 ft | 376 kts | 338° |
| 2026-05-04 03:26 | 33.97070 | -112.31587 | 18834 ft | 377 kts | 338° |
| 2026-05-04 03:26 | 33.99732 | -112.32459 | 19137 ft | 385 kts | 337° |
| 2026-05-04 03:26 | 34.02321 | -112.33662 | 19449 ft | 383 kts | 327° |
| 2026-05-04 03:27 | 34.04668 | -112.35368 | 19977 ft | 375 kts | 317° |
| 2026-05-04 03:27 | 34.06768 | -112.37381 | 20456 ft | 374 kts | 314° |
| 2026-05-04 03:27 | 34.08843 | -112.39475 | 20881 ft | 376 kts | 313° |
| 2026-05-04 03:27 | 34.10924 | -112.41593 | 21333 ft | 377 kts | 313° |
| 2026-05-04 03:28 | 34.12999 | -112.43692 | 21811 ft | 378 kts | 313° |
| 2026-05-04 03:28 | 34.15096 | -112.45815 | 22226 ft | 379 kts | 313° |
| 2026-05-04 03:28 | 34.17207 | -112.47947 | 22628 ft | 380 kts | 313° |
| 2026-05-04 03:28 | 34.19303 | -112.50061 | 23091 ft | 380 kts | 313° |
| 2026-05-04 03:29 | 34.21382 | -112.52158 | 23642 ft | 377 kts | 313° |
| 2026-05-04 03:29 | 34.23456 | -112.54247 | 24162 ft | 374 kts | 312° |
| 2026-05-04 03:29 | 34.25542 | -112.56349 | 24655 ft | 373 kts | 312° |
| 2026-05-04 03:29 | 34.27626 | -112.58455 | 25014 ft | 374 kts | 311° |
| 2026-05-04 03:30 | 34.29678 | -112.60537 | 25359 ft | 375 kts | 312° |
| 2026-05-04 03:30 | 34.31762 | -112.62652 | 25770 ft | 375 kts | 312° |
| 2026-05-04 03:30 | 34.33825 | -112.64739 | 26031 ft | 378 kts | 312° |
| 2026-05-04 03:30 | 34.35921 | -112.66866 | 26041 ft | 378 kts | 311° |
| 2026-05-04 03:31 | 34.37968 | -112.68938 | 26050 ft | 378 kts | 311° |
| 2026-05-04 03:31 | 34.40020 | -112.71024 | 26054 ft | 378 kts | 311° |
| 2026-05-04 03:31 | 34.42063 | -112.73096 | 26050 ft | 378 kts | 311° |
| 2026-05-04 03:31 | 34.44087 | -112.75153 | 26052 ft | 378 kts | 311° |
| 2026-05-04 03:32 | 34.46127 | -112.77223 | 26053 ft | 379 kts | 311° |
| 2026-05-04 03:32 | 34.48197 | -112.79327 | 26058 ft | 378 kts | 311° |
| 2026-05-04 03:32 | 34.50274 | -112.81442 | 26059 ft | 376 kts | 311° |
| 2026-05-04 03:32 | 34.52330 | -112.83536 | 26057 ft | 376 kts | 311° |
| 2026-05-04 03:33 | 34.54384 | -112.85630 | 26049 ft | 379 kts | 311° |
| 2026-05-04 03:33 | 34.56418 | -112.87704 | 26051 ft | 379 kts | 311° |
| 2026-05-04 03:33 | 34.58479 | -112.89806 | 26054 ft | 379 kts | 310° |
| 2026-05-04 03:33 | 34.60561 | -112.91937 | 26052 ft | 377 kts | 311° |
| 2026-05-04 03:34 | 34.62606 | -112.94029 | 26052 ft | 377 kts | 311° |
| 2026-05-04 03:34 | 34.64714 | -112.96182 | 26052 ft | 378 kts | 311° |
| 2026-05-04 03:34 | 34.66827 | -112.98345 | 26055 ft | 378 kts | 311° |
| 2026-05-04 03:34 | 34.68893 | -113.00465 | 26061 ft | 378 kts | 311° |
| 2026-05-04 03:35 | 34.70953 | -113.02567 | 26065 ft | 378 kts | 311° |
| 2026-05-04 03:35 | 34.73016 | -113.04684 | 26069 ft | 379 kts | 311° |
| 2026-05-04 03:35 | 34.75124 | -113.06851 | 26069 ft | 379 kts | 311° |
| 2026-05-04 03:35 | 34.77163 | -113.09068 | 26062 ft | 376 kts | 308° |
| 2026-05-04 03:36 | 34.79072 | -113.11397 | 26072 ft | 374 kts | 306° |
| 2026-05-04 03:36 | 34.80869 | -113.13852 | 26074 ft | 374 kts | 303° |
| 2026-05-04 03:36 | 34.82687 | -113.16341 | 26069 ft | 376 kts | 305° |
| 2026-05-04 03:36 | 34.84558 | -113.18747 | 26070 ft | 376 kts | 306° |
| 2026-05-04 03:37 | 34.86439 | -113.21143 | 26069 ft | 376 kts | 306° |
| 2026-05-04 03:37 | 34.88310 | -113.23520 | 26056 ft | 377 kts | 306° |
| 2026-05-04 03:37 | 34.90220 | -113.25944 | 26053 ft | 378 kts | 306° |
| 2026-05-04 03:37 | 34.92084 | -113.28325 | 26056 ft | 377 kts | 306° |
| 2026-05-04 03:38 | 34.93976 | -113.30733 | 26056 ft | 377 kts | 306° |
| 2026-05-04 03:38 | 34.95837 | -113.33099 | 26049 ft | 376 kts | 306° |
| 2026-05-04 03:38 | 34.97734 | -113.35501 | 26045 ft | 378 kts | 307° |
| 2026-05-04 03:38 | 34.99710 | -113.37797 | 26047 ft | 380 kts | 310° |
| 2026-05-04 03:39 | 35.01798 | -113.39981 | 26049 ft | 381 kts | 312° |
| 2026-05-04 03:39 | 35.03928 | -113.42130 | 26057 ft | 381 kts | 313° |
| 2026-05-04 03:39 | 35.06052 | -113.44267 | 26054 ft | 380 kts | 312° |
| 2026-05-04 03:39 | 35.08143 | -113.46366 | 26048 ft | 380 kts | 312° |
| 2026-05-04 03:40 | 35.10262 | -113.48505 | 26032 ft | 380 kts | 312° |
| 2026-05-04 03:40 | 35.12371 | -113.50626 | 26014 ft | 380 kts | 312° |
| 2026-05-04 03:40 | 35.14460 | -113.52728 | 26003 ft | 379 kts | 311° |
| 2026-05-04 03:40 | 35.16550 | -113.54841 | 25986 ft | 378 kts | 311° |
| 2026-05-04 03:41 | 35.18637 | -113.56946 | 25992 ft | 378 kts | 311° |
| 2026-05-04 03:41 | 35.20746 | -113.59083 | 26015 ft | 379 kts | 312° |
| 2026-05-04 03:41 | 35.22860 | -113.61221 | 26032 ft | 379 kts | 312° |
| 2026-05-04 03:41 | 35.24974 | -113.63357 | 26047 ft | 379 kts | 312° |
| 2026-05-04 03:42 | 35.27072 | -113.65480 | 26029 ft | 381 kts | 311° |
| 2026-05-04 03:42 | 35.29192 | -113.67634 | 25767 ft | 378 kts | 311° |
| 2026-05-04 03:42 | 35.31270 | -113.69738 | 25500 ft | 374 kts | 311° |
| 2026-05-04 03:42 | 35.33335 | -113.71827 | 25239 ft | 375 kts | 311° |
| 2026-05-04 03:43 | 35.35379 | -113.73907 | 24977 ft | 372 kts | 311° |
| 2026-05-04 03:43 | 35.37424 | -113.75985 | 24706 ft | 371 kts | 312° |
| 2026-05-04 03:43 | 35.39476 | -113.78074 | 24344 ft | 371 kts | 311° |
| 2026-05-04 03:43 | 35.41519 | -113.80154 | 23865 ft | 372 kts | 312° |
| 2026-05-04 03:44 | 35.43586 | -113.82258 | 23239 ft | 373 kts | 311° |
| 2026-05-04 03:44 | 35.45633 | -113.84338 | 22581 ft | 375 kts | 312° |
| 2026-05-04 03:44 | 35.47693 | -113.86449 | 21954 ft | 376 kts | 312° |
| 2026-05-04 03:44 | 35.49724 | -113.88523 | 21457 ft | 374 kts | 313° |
| 2026-05-04 03:45 | 35.51748 | -113.90590 | 20933 ft | 373 kts | 312° |
| 2026-05-04 03:45 | 35.53777 | -113.92666 | 20417 ft | 373 kts | 312° |
| 2026-05-04 03:45 | 35.55816 | -113.94757 | 19877 ft | 373 kts | 313° |
| 2026-05-04 03:45 | 35.57851 | -113.96838 | 19357 ft | 372 kts | 313° |
| 2026-05-04 03:46 | 35.59881 | -113.98914 | 18836 ft | 372 kts | 313° |
| 2026-05-04 03:46 | 35.61940 | -114.01022 | 18316 ft | 372 kts | 314° |
| 2026-05-04 03:46 | 35.63995 | -114.03127 | 17801 ft | 367 kts | 315° |
| 2026-05-04 03:46 | 35.66009 | -114.05198 | 17289 ft | 362 kts | 315° |
| 2026-05-04 03:47 | 35.67976 | -114.07214 | 16850 ft | 356 kts | 315° |
| 2026-05-04 03:47 | 35.69893 | -114.09179 | 16687 ft | 341 kts | 315° |
| 2026-05-04 03:47 | 35.71742 | -114.11067 | 16535 ft | 329 kts | 314° |
| 2026-05-04 03:47 | 35.73516 | -114.12891 | 16382 ft | 318 kts | 314° |
| 2026-05-04 03:48 | 35.75175 | -114.14747 | 16216 ft | 306 kts | 307° |
| 2026-05-04 03:48 | 35.76530 | -114.16874 | 16141 ft | 310 kts | 297° |
| 2026-05-04 03:48 | 35.77657 | -114.19283 | 16142 ft | 317 kts | 294° |
| 2026-05-04 03:48 | 35.78729 | -114.21743 | 16125 ft | 318 kts | 292° |
| 2026-05-04 03:49 | 35.79814 | -114.24241 | 15774 ft | 320 kts | 293° |
| 2026-05-04 03:49 | 35.80894 | -114.26717 | 15305 ft | 321 kts | 293° |
| 2026-05-04 03:49 | 35.81980 | -114.29190 | 14862 ft | 320 kts | 294° |
| 2026-05-04 03:49 | 35.83069 | -114.31641 | 14406 ft | 321 kts | 295° |
| 2026-05-04 03:50 | 35.84287 | -114.34061 | 13957 ft | 322 kts | 300° |
| 2026-05-04 03:50 | 35.85648 | -114.36343 | 13543 ft | 322 kts | 303° |
| 2026-05-04 03:50 | 35.87038 | -114.38558 | 13108 ft | 323 kts | 304° |
| 2026-05-04 03:50 | 35.88449 | -114.40801 | 12694 ft | 321 kts | 304° |
| 2026-05-04 03:51 | 35.89848 | -114.43024 | 12308 ft | 319 kts | 303° |
| 2026-05-04 03:51 | 35.91263 | -114.45283 | 11896 ft | 318 kts | 304° |
| 2026-05-04 03:51 | 35.92650 | -114.47510 | 11487 ft | 318 kts | 303° |
| 2026-05-04 03:51 | 35.94040 | -114.49736 | 11099 ft | 316 kts | 303° |
| 2026-05-04 03:52 | 35.95413 | -114.51945 | 10721 ft | 314 kts | 304° |
| 2026-05-04 03:52 | 35.96770 | -114.54131 | 10364 ft | 312 kts | 303° |
| 2026-05-04 03:52 | 35.98119 | -114.56329 | 9999 ft | 310 kts | 303° |
| 2026-05-04 03:52 | 35.99451 | -114.58485 | 9627 ft | 308 kts | 303° |
| 2026-05-04 03:53 | 36.00751 | -114.60599 | 9260 ft | 307 kts | 302° |
| 2026-05-04 03:53 | 36.02047 | -114.62702 | 8911 ft | 305 kts | 302° |
| 2026-05-04 03:53 | 36.03347 | -114.64833 | 8553 ft | 303 kts | 301° |
| 2026-05-04 03:53 | 36.04541 | -114.67049 | 8170 ft | 299 kts | 296° |
| 2026-05-04 03:54 | 36.05619 | -114.69235 | 8031 ft | 287 kts | 296° |
| 2026-05-04 03:54 | 36.06639 | -114.71326 | 8012 ft | 275 kts | 294° |
| 2026-05-04 03:54 | 36.07323 | -114.73491 | 7983 ft | 262 kts | 273° |
| 2026-05-04 03:54 | 36.07446 | -114.75722 | 7767 ft | 249 kts | 265° |
| 2026-05-04 03:55 | 36.07465 | -114.77867 | 7409 ft | 245 kts | 264° |
| 2026-05-04 03:55 | 36.07460 | -114.79966 | 7091 ft | 239 kts | 264° |
| 2026-05-04 03:55 | 36.07451 | -114.82013 | 6770 ft | 234 kts | 264° |
| 2026-05-04 03:55 | 36.07442 | -114.84000 | 6578 ft | 222 kts | 264° |
| 2026-05-04 03:56 | 36.07435 | -114.85868 | 6394 ft | 212 kts | 264° |
| 2026-05-04 03:56 | 36.07399 | -114.87743 | 5815 ft | 222 kts | 262° |
| 2026-05-04 03:56 | 36.07368 | -114.89681 | 5353 ft | 224 kts | 266° |
| 2026-05-04 03:56 | 36.07394 | -114.91601 | 5167 ft | 212 kts | 266° |
| 2026-05-04 03:57 | 36.07409 | -114.93409 | 4914 ft | 203 kts | 266° |
| 2026-05-04 03:57 | 36.07411 | -114.95117 | 4665 ft | 195 kts | 264° |
| 2026-05-04 03:57 | 36.07406 | -114.96788 | 4422 ft | 186 kts | 265° |
| 2026-05-04 03:57 | 36.07401 | -114.98365 | 4221 ft | 173 kts | 265° |
| 2026-05-04 03:58 | 36.07394 | -115.01103 | 3770 ft | 145 kts | 264° |
| 2026-05-04 03:58 | 36.07388 | -115.02383 | 3588 ft | 144 kts | 264° |
| 2026-05-04 03:58 | 36.07384 | -115.03642 | 3414 ft | 143 kts | 264° |
| 2026-05-04 03:59 | 36.07381 | -115.04896 | 3238 ft | 143 kts | 264° |
| 2026-05-04 03:59 | 36.07378 | -115.06161 | 3054 ft | 143 kts | 264° |
| 2026-05-04 03:59 | 36.07377 | -115.07442 | 2866 ft | 142 kts | 264° |
| 2026-05-04 03:59 | 36.07377 | -115.08697 | 2679 ft | 141 kts | 264° |
| 2026-05-04 04:00 | 36.07373 | -115.09953 | 2489 ft | 141 kts | 265° |
| 2026-05-04 04:00 | 36.07371 | -115.11198 | 2315 ft | 140 kts | 263° |
| 2026-05-04 04:00 | 36.07366 | -115.12450 | 2164 ft | 141 kts | 265° |
| 2026-05-04 04:00 | 36.07367 | -115.13723 | 2113 ft | 142 kts | 264° |
| 2026-05-04 04:01 | 36.07354 | -115.14872 | 2130 ft | 108 kts | 270° |
| 2026-05-04 04:01 | 36.07357 | -115.15595 | 2157 ft | 57 kts | 268° |
| 2026-05-04 04:01 | 36.07363 | -115.15878 | 2167 ft | 11 kts | 271° |
| 2026-05-04 04:01 | 36.07369 | -115.16011 | 2172 ft | 16 kts | 272° |
| 2026-05-04 04:02 | 36.07417 | -115.16122 | 2175 ft | 17 kts | 346° |
| 2026-05-04 04:02 | 36.07565 | -115.16128 | 2171 ft | 25 kts | 0° |
| 2026-05-04 04:02 | 36.07747 | -115.16129 | 2167 ft | 16 kts | 359° |
| 2026-05-04 04:02 | 36.07769 | -115.16129 | 2166 ft | 0 kts | 359° |
| 2026-05-04 04:03 | 36.07773 | -115.16129 | 2166 ft | 2 kts | 2° |
| 2026-05-04 04:04 | 36.07800 | -115.16089 | 2164 ft | 10 kts | 73° |
| 2026-05-04 04:04 | 36.07803 | -115.15960 | 2159 ft | 16 kts | 91° |
| 2026-05-04 04:04 | 36.07801 | -115.15810 | 2156 ft | 17 kts | 90° |
| 2026-05-04 04:04 | 36.07802 | -115.15640 | 2150 ft | 20 kts | 89° |
| 2026-05-04 04:05 | 36.07804 | -115.15488 | 2144 ft | 15 kts | 90° |
| 2026-05-04 04:05 | 36.07810 | -115.15369 | 2140 ft | 12 kts | 64° |
| 2026-05-04 04:05 | 36.07867 | -115.15297 | 2136 ft | 13 kts | 63° |
| 2026-05-04 04:05 | 36.07940 | -115.15205 | 2131 ft | 16 kts | 9° |
| 2026-05-04 04:06 | 36.08026 | -115.15202 | 2129 ft | 11 kts | 358° |
| 2026-05-04 04:06 | 36.08086 | -115.15228 | 2129 ft | 3 kts | 311° |
| 2026-05-04 04:06 | 36.08110 | -115.15245 | 2129 ft | 4 kts | 344° |
| 2026-05-04 04:06 | 36.08152 | -115.15241 | 2128 ft | 7 kts | 19° |
| 2026-05-04 04:07 | 36.08209 | -115.15188 | 2124 ft | 11 kts | 46° |
| 2026-05-04 04:07 | 36.08240 | -115.15149 | 2123 ft | 3 kts | 44° |
| 2026-05-04 04:07 | 36.08244 | -115.15144 | 2123 ft | 0 kts | 44° |